sensor_id;sensor_type;location;lat;lon;timestamp;P1;durP1;ratioP1;P2;durP2;ratioP2
49101;SDS011;34913;47.520;19.186;2023-09-30T00:02:26;10.63;;;8.23;;
49101;SDS011;34913;47.520;19.186;2023-09-30T00:04:52;10.32;;;7.60;;
49101;SDS011;34913;47.520;19.186;2023-09-30T00:07:17;11.77;;;8.32;;
49101;SDS011;34913;47.520;19.186;2023-09-30T00:09:43;13.18;;;8.38;;
49101;SDS011;34913;47.520;19.186;2023-09-30T00:12:08;11.15;;;7.82;;
49101;SDS011;34913;47.520;19.186;2023-09-30T00:14:34;12.27;;;7.70;;
49101;SDS011;34913;47.520;19.186;2023-09-30T00:17:01;14.30;;;8.45;;
49101;SDS011;34913;47.520;19.186;2023-09-30T00:19:26;10.45;;;7.63;;
49101;SDS011;34913;47.520;19.186;2023-09-30T00:21:52;13.88;;;8.35;;
49101;SDS011;34913;47.520;19.186;2023-09-30T00:24:17;12.63;;;8.98;;
49101;SDS011;34913;47.520;19.186;2023-09-30T00:26:42;11.80;;;8.43;;
49101;SDS011;34913;47.520;19.186;2023-09-30T00:29:08;11.50;;;8.93;;
49101;SDS011;34913;47.520;19.186;2023-09-30T00:31:35;13.35;;;9.57;;
49101;SDS011;34913;47.520;19.186;2023-09-30T00:34:01;12.88;;;9.80;;
49101;SDS011;34913;47.520;19.186;2023-09-30T00:36:26;13.00;;;9.25;;
49101;SDS011;34913;47.520;19.186;2023-09-30T00:38:52;14.05;;;9.77;;
49101;SDS011;34913;47.520;19.186;2023-09-30T00:41:17;15.02;;;9.93;;
49101;SDS011;34913;47.520;19.186;2023-09-30T00:43:45;14.95;;;10.50;;
49101;SDS011;34913;47.520;19.186;2023-09-30T00:48:42;14.45;;;10.00;;
49101;SDS011;34913;47.520;19.186;2023-09-30T00:51:08;17.25;;;10.13;;
49101;SDS011;34913;47.520;19.186;2023-09-30T00:53:34;16.15;;;9.55;;
49101;SDS011;34913;47.520;19.186;2023-09-30T00:55:59;17.58;;;9.85;;
49101;SDS011;34913;47.520;19.186;2023-09-30T00:58:25;14.27;;;9.55;;
49101;SDS011;34913;47.520;19.186;2023-09-30T01:00:54;15.65;;;9.90;;
49101;SDS011;34913;47.520;19.186;2023-09-30T01:03:22;13.82;;;9.27;;
49101;SDS011;34913;47.520;19.186;2023-09-30T01:05:48;14.05;;;9.38;;
49101;SDS011;34913;47.520;19.186;2023-09-30T01:08:14;13.75;;;9.85;;
49101;SDS011;34913;47.520;19.186;2023-09-30T01:10:41;14.00;;;9.95;;
49101;SDS011;34913;47.520;19.186;2023-09-30T01:13:07;17.48;;;9.57;;
49101;SDS011;34913;47.520;19.186;2023-09-30T01:15:33;15.65;;;9.48;;
49101;SDS011;34913;47.520;19.186;2023-09-30T01:17:59;13.43;;;9.73;;
49101;SDS011;34913;47.520;19.186;2023-09-30T01:20:24;15.07;;;10.07;;
49101;SDS011;34913;47.520;19.186;2023-09-30T01:22:51;15.60;;;9.05;;
49101;SDS011;34913;47.520;19.186;2023-09-30T01:25:20;12.88;;;9.27;;
49101;SDS011;34913;47.520;19.186;2023-09-30T01:27:45;12.25;;;9.68;;
49101;SDS011;34913;47.520;19.186;2023-09-30T01:30:11;18.38;;;10.35;;
49101;SDS011;34913;47.520;19.186;2023-09-30T01:32:38;13.80;;;9.82;;
49101;SDS011;34913;47.520;19.186;2023-09-30T01:35:04;16.20;;;9.88;;
49101;SDS011;34913;47.520;19.186;2023-09-30T01:37:30;16.70;;;9.23;;
49101;SDS011;34913;47.520;19.186;2023-09-30T01:39:56;13.88;;;9.52;;
49101;SDS011;34913;47.520;19.186;2023-09-30T01:42:21;15.85;;;9.90;;
49101;SDS011;34913;47.520;19.186;2023-09-30T01:44:47;13.63;;;9.95;;
49101;SDS011;34913;47.520;19.186;2023-09-30T01:47:13;17.48;;;10.32;;
49101;SDS011;34913;47.520;19.186;2023-09-30T01:49:38;13.40;;;9.57;;
49101;SDS011;34913;47.520;19.186;2023-09-30T01:52:03;15.95;;;9.60;;
49101;SDS011;34913;47.520;19.186;2023-09-30T01:54:29;19.38;;;10.25;;
49101;SDS011;34913;47.520;19.186;2023-09-30T01:56:55;13.52;;;9.73;;
49101;SDS011;34913;47.520;19.186;2023-09-30T01:59:20;14.20;;;10.18;;
49101;SDS011;34913;47.520;19.186;2023-09-30T02:01:46;17.65;;;10.55;;
49101;SDS011;34913;47.520;19.186;2023-09-30T02:04:12;13.57;;;10.13;;
49101;SDS011;34913;47.520;19.186;2023-09-30T02:06:40;15.52;;;10.45;;
49101;SDS011;34913;47.520;19.186;2023-09-30T02:09:08;14.52;;;9.75;;
49101;SDS011;34913;47.520;19.186;2023-09-30T02:11:35;17.08;;;9.30;;
49101;SDS011;34913;47.520;19.186;2023-09-30T02:14:01;14.93;;;9.68;;
49101;SDS011;34913;47.520;19.186;2023-09-30T02:16:27;14.52;;;9.90;;
49101;SDS011;34913;47.520;19.186;2023-09-30T02:18:53;15.32;;;9.95;;
49101;SDS011;34913;47.520;19.186;2023-09-30T02:21:18;14.30;;;10.27;;
49101;SDS011;34913;47.520;19.186;2023-09-30T02:23:44;14.35;;;9.57;;
49101;SDS011;34913;47.520;19.186;2023-09-30T02:26:13;15.48;;;9.73;;
49101;SDS011;34913;47.520;19.186;2023-09-30T02:28:39;13.80;;;10.43;;
49101;SDS011;34913;47.520;19.186;2023-09-30T02:31:05;14.75;;;10.10;;
49101;SDS011;34913;47.520;19.186;2023-09-30T02:33:32;12.52;;;10.10;;
49101;SDS011;34913;47.520;19.186;2023-09-30T02:36:00;15.00;;;10.57;;
49101;SDS011;34913;47.520;19.186;2023-09-30T02:38:26;15.02;;;10.70;;
49101;SDS011;34913;47.520;19.186;2023-09-30T02:40:53;15.80;;;10.30;;
49101;SDS011;34913;47.520;19.186;2023-09-30T02:43:19;14.75;;;10.32;;
49101;SDS011;34913;47.520;19.186;2023-09-30T02:45:45;16.80;;;10.35;;
49101;SDS011;34913;47.520;19.186;2023-09-30T02:48:11;13.80;;;10.75;;
49101;SDS011;34913;47.520;19.186;2023-09-30T02:50:37;14.13;;;10.13;;
49101;SDS011;34913;47.520;19.186;2023-09-30T02:53:04;15.88;;;11.40;;
49101;SDS011;34913;47.520;19.186;2023-09-30T02:55:29;17.00;;;11.23;;
49101;SDS011;34913;47.520;19.186;2023-09-30T02:57:55;18.27;;;10.73;;
49101;SDS011;34913;47.520;19.186;2023-09-30T03:00:21;13.48;;;10.75;;
49101;SDS011;34913;47.520;19.186;2023-09-30T03:02:51;14.05;;;10.35;;
49101;SDS011;34913;47.520;19.186;2023-09-30T03:05:18;15.82;;;11.20;;
49101;SDS011;34913;47.520;19.186;2023-09-30T03:07:45;13.70;;;10.13;;
49101;SDS011;34913;47.520;19.186;2023-09-30T03:10:11;15.85;;;10.35;;
49101;SDS011;34913;47.520;19.186;2023-09-30T03:12:39;14.55;;;9.65;;
49101;SDS011;34913;47.520;19.186;2023-09-30T03:15:04;15.13;;;10.02;;
49101;SDS011;34913;47.520;19.186;2023-09-30T03:17:30;13.45;;;10.10;;
49101;SDS011;34913;47.520;19.186;2023-09-30T03:19:57;13.52;;;10.20;;
49101;SDS011;34913;47.520;19.186;2023-09-30T03:22:24;16.40;;;11.07;;
49101;SDS011;34913;47.520;19.186;2023-09-30T03:24:51;18.13;;;11.52;;
49101;SDS011;34913;47.520;19.186;2023-09-30T03:27:16;14.60;;;11.35;;
49101;SDS011;34913;47.520;19.186;2023-09-30T03:29:41;18.30;;;12.18;;
49101;SDS011;34913;47.520;19.186;2023-09-30T03:32:07;19.00;;;11.90;;
49101;SDS011;34913;47.520;19.186;2023-09-30T03:34:33;17.45;;;11.05;;
49101;SDS011;34913;47.520;19.186;2023-09-30T03:37:01;17.95;;;11.38;;
49101;SDS011;34913;47.520;19.186;2023-09-30T03:39:26;21.48;;;11.48;;
49101;SDS011;34913;47.520;19.186;2023-09-30T03:41:55;18.75;;;11.38;;
49101;SDS011;34913;47.520;19.186;2023-09-30T03:44:22;17.33;;;11.07;;
49101;SDS011;34913;47.520;19.186;2023-09-30T03:46:48;15.73;;;10.98;;
49101;SDS011;34913;47.520;19.186;2023-09-30T03:49:15;17.42;;;10.73;;
49101;SDS011;34913;47.520;19.186;2023-09-30T03:51:41;23.33;;;11.10;;
49101;SDS011;34913;47.520;19.186;2023-09-30T03:54:07;14.52;;;10.38;;
49101;SDS011;34913;47.520;19.186;2023-09-30T03:56:33;13.45;;;10.15;;
49101;SDS011;34913;47.520;19.186;2023-09-30T03:58:59;15.60;;;10.80;;
49101;SDS011;34913;47.520;19.186;2023-09-30T04:01:24;16.95;;;10.23;;
49101;SDS011;34913;47.520;19.186;2023-09-30T04:03:51;17.05;;;10.80;;
49101;SDS011;34913;47.520;19.186;2023-09-30T04:06:19;15.10;;;10.13;;
49101;SDS011;34913;47.520;19.186;2023-09-30T04:08:45;13.90;;;9.90;;
49101;SDS011;34913;47.520;19.186;2023-09-30T04:11:10;15.60;;;9.98;;
49101;SDS011;34913;47.520;19.186;2023-09-30T04:13:42;15.40;;;10.80;;
49101;SDS011;34913;47.520;19.186;2023-09-30T04:16:07;17.13;;;10.95;;
49101;SDS011;34913;47.520;19.186;2023-09-30T04:18:33;17.60;;;11.15;;
49101;SDS011;34913;47.520;19.186;2023-09-30T04:20:58;14.02;;;10.25;;
49101;SDS011;34913;47.520;19.186;2023-09-30T04:23:24;19.00;;;10.45;;
49101;SDS011;34913;47.520;19.186;2023-09-30T04:25:50;16.23;;;10.88;;
49101;SDS011;34913;47.520;19.186;2023-09-30T04:28:15;16.40;;;10.63;;
49101;SDS011;34913;47.520;19.186;2023-09-30T04:30:46;17.70;;;10.77;;
49101;SDS011;34913;47.520;19.186;2023-09-30T04:33:12;15.70;;;10.85;;
49101;SDS011;34913;47.520;19.186;2023-09-30T04:35:38;20.52;;;11.68;;
49101;SDS011;34913;47.520;19.186;2023-09-30T04:38:03;15.05;;;10.50;;
49101;SDS011;34913;47.520;19.186;2023-09-30T04:40:29;17.45;;;10.50;;
49101;SDS011;34913;47.520;19.186;2023-09-30T04:42:55;18.92;;;10.93;;
49101;SDS011;34913;47.520;19.186;2023-09-30T04:45:23;19.02;;;10.65;;
49101;SDS011;34913;47.520;19.186;2023-09-30T04:47:51;15.07;;;10.40;;
49101;SDS011;34913;47.520;19.186;2023-09-30T04:50:17;18.38;;;11.02;;
49101;SDS011;34913;47.520;19.186;2023-09-30T04:52:42;17.48;;;10.55;;
49101;SDS011;34913;47.520;19.186;2023-09-30T04:55:09;16.48;;;10.13;;
49101;SDS011;34913;47.520;19.186;2023-09-30T04:57:37;16.83;;;9.98;;
49101;SDS011;34913;47.520;19.186;2023-09-30T05:00:02;16.05;;;10.35;;
49101;SDS011;34913;47.520;19.186;2023-09-30T05:02:37;15.20;;;9.82;;
49101;SDS011;34913;47.520;19.186;2023-09-30T05:05:02;13.45;;;9.43;;
49101;SDS011;34913;47.520;19.186;2023-09-30T05:07:31;16.65;;;10.10;;
49101;SDS011;34913;47.520;19.186;2023-09-30T05:09:57;16.40;;;10.50;;
49101;SDS011;34913;47.520;19.186;2023-09-30T05:12:22;16.08;;;10.63;;
49101;SDS011;34913;47.520;19.186;2023-09-30T05:14:48;17.73;;;10.85;;
49101;SDS011;34913;47.520;19.186;2023-09-30T05:17:13;18.00;;;11.18;;
49101;SDS011;34913;47.520;19.186;2023-09-30T05:19:39;17.27;;;10.48;;
49101;SDS011;34913;47.520;19.186;2023-09-30T05:22:04;15.73;;;11.40;;
49101;SDS011;34913;47.520;19.186;2023-09-30T05:24:30;17.00;;;10.98;;
49101;SDS011;34913;47.520;19.186;2023-09-30T05:26:55;21.17;;;10.90;;
49101;SDS011;34913;47.520;19.186;2023-09-30T05:29:21;16.35;;;11.35;;
49101;SDS011;34913;47.520;19.186;2023-09-30T05:31:48;17.73;;;11.98;;
49101;SDS011;34913;47.520;19.186;2023-09-30T05:34:13;17.73;;;12.25;;
49101;SDS011;34913;47.520;19.186;2023-09-30T05:36:39;18.48;;;12.02;;
49101;SDS011;34913;47.520;19.186;2023-09-30T05:39:04;16.30;;;12.27;;
49101;SDS011;34913;47.520;19.186;2023-09-30T05:41:30;17.23;;;12.02;;
49101;SDS011;34913;47.520;19.186;2023-09-30T05:43:58;16.67;;;11.98;;
49101;SDS011;34913;47.520;19.186;2023-09-30T05:46:24;17.67;;;12.63;;
49101;SDS011;34913;47.520;19.186;2023-09-30T05:48:52;15.40;;;11.65;;
49101;SDS011;34913;47.520;19.186;2023-09-30T05:51:17;16.08;;;11.98;;
49101;SDS011;34913;47.520;19.186;2023-09-30T05:53:44;19.67;;;12.10;;
49101;SDS011;34913;47.520;19.186;2023-09-30T05:56:12;19.08;;;12.00;;
49101;SDS011;34913;47.520;19.186;2023-09-30T05:58:40;18.15;;;12.13;;
49101;SDS011;34913;47.520;19.186;2023-09-30T06:01:09;17.25;;;11.65;;
49101;SDS011;34913;47.520;19.186;2023-09-30T06:03:43;17.17;;;11.13;;
49101;SDS011;34913;47.520;19.186;2023-09-30T06:06:14;15.57;;;10.95;;
49101;SDS011;34913;47.520;19.186;2023-09-30T06:08:41;15.95;;;10.50;;
49101;SDS011;34913;47.520;19.186;2023-09-30T06:11:15;17.27;;;10.25;;
49101;SDS011;34913;47.520;19.186;2023-09-30T06:13:42;13.60;;;10.32;;
49101;SDS011;34913;47.520;19.186;2023-09-30T06:16:08;14.20;;;9.57;;
49101;SDS011;34913;47.520;19.186;2023-09-30T06:18:36;13.23;;;9.13;;
49101;SDS011;34913;47.520;19.186;2023-09-30T06:21:01;14.45;;;9.30;;
49101;SDS011;34913;47.520;19.186;2023-09-30T06:23:28;12.07;;;9.05;;
49101;SDS011;34913;47.520;19.186;2023-09-30T06:25:55;12.82;;;8.82;;
49101;SDS011;34913;47.520;19.186;2023-09-30T06:28:21;13.68;;;9.10;;
49101;SDS011;34913;47.520;19.186;2023-09-30T06:30:51;12.95;;;7.72;;
49101;SDS011;34913;47.520;19.186;2023-09-30T06:33:17;14.98;;;8.60;;
49101;SDS011;34913;47.520;19.186;2023-09-30T06:35:42;11.23;;;8.10;;
49101;SDS011;34913;47.520;19.186;2023-09-30T06:38:15;12.40;;;8.45;;
49101;SDS011;34913;47.520;19.186;2023-09-30T06:40:42;14.30;;;8.20;;
49101;SDS011;34913;47.520;19.186;2023-09-30T06:43:08;12.80;;;7.93;;
49101;SDS011;34913;47.520;19.186;2023-09-30T06:45:33;9.57;;;7.60;;
49101;SDS011;34913;47.520;19.186;2023-09-30T06:47:59;11.90;;;7.97;;
49101;SDS011;34913;47.520;19.186;2023-09-30T06:50:24;12.45;;;7.78;;
49101;SDS011;34913;47.520;19.186;2023-09-30T06:52:50;12.70;;;7.95;;
49101;SDS011;34913;47.520;19.186;2023-09-30T06:55:15;11.45;;;7.38;;
49101;SDS011;34913;47.520;19.186;2023-09-30T06:57:44;12.52;;;7.72;;
49101;SDS011;34913;47.520;19.186;2023-09-30T07:00:10;10.70;;;7.85;;
49101;SDS011;34913;47.520;19.186;2023-09-30T07:02:37;11.10;;;7.47;;
49101;SDS011;34913;47.520;19.186;2023-09-30T07:05:07;10.82;;;8.00;;
49101;SDS011;34913;47.520;19.186;2023-09-30T07:07:33;10.43;;;7.72;;
49101;SDS011;34913;47.520;19.186;2023-09-30T07:09:59;10.40;;;7.55;;
49101;SDS011;34913;47.520;19.186;2023-09-30T07:12:24;9.45;;;7.18;;
49101;SDS011;34913;47.520;19.186;2023-09-30T07:14:50;12.88;;;7.78;;
49101;SDS011;34913;47.520;19.186;2023-09-30T07:17:15;12.15;;;8.10;;
49101;SDS011;34913;47.520;19.186;2023-09-30T07:19:41;10.93;;;8.30;;
49101;SDS011;34913;47.520;19.186;2023-09-30T07:22:06;10.07;;;7.78;;
49101;SDS011;34913;47.520;19.186;2023-09-30T07:24:32;11.77;;;8.10;;
49101;SDS011;34913;47.520;19.186;2023-09-30T07:26:57;12.07;;;8.48;;
49101;SDS011;34913;47.520;19.186;2023-09-30T07:29:23;12.43;;;8.55;;
49101;SDS011;34913;47.520;19.186;2023-09-30T07:31:49;13.30;;;8.98;;
49101;SDS011;34913;47.520;19.186;2023-09-30T07:34:16;12.32;;;8.77;;
49101;SDS011;34913;47.520;19.186;2023-09-30T07:36:41;11.63;;;8.75;;
49101;SDS011;34913;47.520;19.186;2023-09-30T07:39:08;12.35;;;9.18;;
49101;SDS011;34913;47.520;19.186;2023-09-30T07:41:36;12.77;;;9.30;;
49101;SDS011;34913;47.520;19.186;2023-09-30T07:44:02;15.77;;;9.20;;
49101;SDS011;34913;47.520;19.186;2023-09-30T07:46:28;14.82;;;9.30;;
49101;SDS011;34913;47.520;19.186;2023-09-30T07:48:53;12.98;;;8.35;;
49101;SDS011;34913;47.520;19.186;2023-09-30T07:51:20;14.18;;;9.38;;
49101;SDS011;34913;47.520;19.186;2023-09-30T07:53:45;14.80;;;8.90;;
49101;SDS011;34913;47.520;19.186;2023-09-30T07:56:11;12.55;;;8.80;;
49101;SDS011;34913;47.520;19.186;2023-09-30T07:58:36;12.50;;;8.85;;
49101;SDS011;34913;47.520;19.186;2023-09-30T08:01:02;11.45;;;8.27;;
49101;SDS011;34913;47.520;19.186;2023-09-30T08:03:27;12.90;;;9.10;;
49101;SDS011;34913;47.520;19.186;2023-09-30T08:05:53;12.38;;;8.73;;
49101;SDS011;34913;47.520;19.186;2023-09-30T08:08:18;11.80;;;9.27;;
49101;SDS011;34913;47.520;19.186;2023-09-30T08:10:44;12.45;;;9.32;;
49101;SDS011;34913;47.520;19.186;2023-09-30T08:13:09;11.80;;;8.57;;
49101;SDS011;34913;47.520;19.186;2023-09-30T08:15:35;11.18;;;8.45;;
49101;SDS011;34913;47.520;19.186;2023-09-30T08:18:00;15.52;;;9.15;;
49101;SDS011;34913;47.520;19.186;2023-09-30T08:20:29;12.07;;;9.45;;
49101;SDS011;34913;47.520;19.186;2023-09-30T08:22:55;13.35;;;8.70;;
49101;SDS011;34913;47.520;19.186;2023-09-30T08:25:20;14.68;;;9.25;;
49101;SDS011;34913;47.520;19.186;2023-09-30T08:27:46;16.15;;;9.45;;
49101;SDS011;34913;47.520;19.186;2023-09-30T08:30:14;11.95;;;8.38;;
49101;SDS011;34913;47.520;19.186;2023-09-30T08:32:40;14.40;;;9.23;;
49101;SDS011;34913;47.520;19.186;2023-09-30T08:35:06;18.27;;;8.70;;
49101;SDS011;34913;47.520;19.186;2023-09-30T08:37:32;14.20;;;8.25;;
49101;SDS011;34913;47.520;19.186;2023-09-30T08:39:58;11.30;;;8.05;;
49101;SDS011;34913;47.520;19.186;2023-09-30T08:42:23;11.23;;;7.25;;
49101;SDS011;34913;47.520;19.186;2023-09-30T08:44:57;10.43;;;7.60;;
49101;SDS011;34913;47.520;19.186;2023-09-30T08:47:24;12.40;;;7.15;;
49101;SDS011;34913;47.520;19.186;2023-09-30T08:49:52;14.63;;;7.10;;
49101;SDS011;34913;47.520;19.186;2023-09-30T08:52:21;12.60;;;6.97;;
49101;SDS011;34913;47.520;19.186;2023-09-30T08:54:48;12.73;;;7.00;;
49101;SDS011;34913;47.520;19.186;2023-09-30T08:57:14;9.57;;;5.80;;
49101;SDS011;34913;47.520;19.186;2023-09-30T08:59:43;8.98;;;6.18;;
49101;SDS011;34913;47.520;19.186;2023-09-30T09:02:11;7.93;;;5.65;;
49101;SDS011;34913;47.520;19.186;2023-09-30T09:04:39;6.57;;;5.15;;
49101;SDS011;34913;47.520;19.186;2023-09-30T09:07:04;9.40;;;6.07;;
49101;SDS011;34913;47.520;19.186;2023-09-30T09:09:30;10.93;;;6.32;;
49101;SDS011;34913;47.520;19.186;2023-09-30T09:11:57;10.23;;;6.07;;
49101;SDS011;34913;47.520;19.186;2023-09-30T09:17:11;6.20;;;5.50;;
49101;SDS011;34913;47.520;19.186;2023-09-30T09:19:36;9.23;;;5.82;;
49101;SDS011;34913;47.520;19.186;2023-09-30T09:22:02;8.18;;;5.97;;
49101;SDS011;34913;47.520;19.186;2023-09-30T09:24:36;9.00;;;5.75;;
49101;SDS011;34913;47.520;19.186;2023-09-30T09:27:11;7.88;;;5.65;;
49101;SDS011;34913;47.520;19.186;2023-09-30T09:29:38;7.28;;;5.20;;
49101;SDS011;34913;47.520;19.186;2023-09-30T09:32:08;10.13;;;6.00;;
49101;SDS011;34913;47.520;19.186;2023-09-30T09:34:41;8.48;;;5.80;;
49101;SDS011;34913;47.520;19.186;2023-09-30T09:37:15;8.27;;;5.97;;
49101;SDS011;34913;47.520;19.186;2023-09-30T09:42:30;6.50;;;4.75;;
49101;SDS011;34913;47.520;19.186;2023-09-30T09:44:59;8.07;;;4.37;;
49101;SDS011;34913;47.520;19.186;2023-09-30T09:47:31;6.47;;;3.90;;
49101;SDS011;34913;47.520;19.186;2023-09-30T09:49:57;6.07;;;4.63;;
49101;SDS011;34913;47.520;19.186;2023-09-30T09:52:23;5.78;;;4.00;;
49101;SDS011;34913;47.520;19.186;2023-09-30T09:54:50;5.88;;;4.25;;
49101;SDS011;34913;47.520;19.186;2023-09-30T09:57:16;6.50;;;4.30;;
49101;SDS011;34913;47.520;19.186;2023-09-30T09:59:46;5.60;;;4.40;;
49101;SDS011;34913;47.520;19.186;2023-09-30T10:02:16;4.55;;;4.03;;
49101;SDS011;34913;47.520;19.186;2023-09-30T10:04:43;5.97;;;4.05;;
49101;SDS011;34913;47.520;19.186;2023-09-30T10:07:25;5.90;;;4.20;;
49101;SDS011;34913;47.520;19.186;2023-09-30T10:09:53;6.72;;;4.70;;
49101;SDS011;34913;47.520;19.186;2023-09-30T10:12:23;8.57;;;4.55;;
49101;SDS011;34913;47.520;19.186;2023-09-30T10:14:48;7.18;;;5.13;;
49101;SDS011;34913;47.520;19.186;2023-09-30T10:17:14;8.27;;;4.32;;
49101;SDS011;34913;47.520;19.186;2023-09-30T10:22:34;6.80;;;4.38;;
49101;SDS011;34913;47.520;19.186;2023-09-30T10:25:00;7.20;;;4.90;;
49101;SDS011;34913;47.520;19.186;2023-09-30T10:30:15;6.25;;;4.97;;
49101;SDS011;34913;47.520;19.186;2023-09-30T10:38:36;7.35;;;5.05;;
49101;SDS011;34913;47.520;19.186;2023-09-30T10:40:47;8.57;;;5.28;;
49101;SDS011;34913;47.520;19.186;2023-09-30T10:48:52;7.35;;;5.28;;
49101;SDS011;34913;47.520;19.186;2023-09-30T10:51:18;7.72;;;5.00;;
49101;SDS011;34913;47.520;19.186;2023-09-30T10:53:48;7.32;;;5.22;;
49101;SDS011;34913;47.520;19.186;2023-09-30T10:56:21;8.32;;;5.00;;
49101;SDS011;34913;47.520;19.186;2023-09-30T10:58:50;8.65;;;5.22;;
49101;SDS011;34913;47.520;19.186;2023-09-30T11:01:19;8.25;;;5.53;;
49101;SDS011;34913;47.520;19.186;2023-09-30T11:03:46;7.25;;;5.15;;
49101;SDS011;34913;47.520;19.186;2023-09-30T11:06:16;8.52;;;5.18;;
49101;SDS011;34913;47.520;19.186;2023-09-30T11:08:51;12.85;;;5.10;;
49101;SDS011;34913;47.520;19.186;2023-09-30T11:11:19;7.72;;;5.30;;
49101;SDS011;34913;47.520;19.186;2023-09-30T11:13:44;8.35;;;5.28;;
49101;SDS011;34913;47.520;19.186;2023-09-30T11:16:10;7.93;;;5.80;;
49101;SDS011;34913;47.520;19.186;2023-09-30T11:18:36;9.55;;;5.43;;
49101;SDS011;34913;47.520;19.186;2023-09-30T11:21:03;9.20;;;5.50;;
49101;SDS011;34913;47.520;19.186;2023-09-30T11:23:29;7.75;;;5.72;;
49101;SDS011;34913;47.520;19.186;2023-09-30T11:25:56;7.68;;;6.00;;
49101;SDS011;34913;47.520;19.186;2023-09-30T11:28:21;7.65;;;5.13;;
49101;SDS011;34913;47.520;19.186;2023-09-30T11:30:55;8.30;;;5.63;;
49101;SDS011;34913;47.520;19.186;2023-09-30T11:33:21;9.25;;;5.93;;
49101;SDS011;34913;47.520;19.186;2023-09-30T11:35:56;9.50;;;6.00;;
49101;SDS011;34913;47.520;19.186;2023-09-30T11:38:26;7.28;;;5.55;;
49101;SDS011;34913;47.520;19.186;2023-09-30T11:41:02;9.00;;;5.63;;
49101;SDS011;34913;47.520;19.186;2023-09-30T11:43:34;12.30;;;6.00;;
49101;SDS011;34913;47.520;19.186;2023-09-30T11:46:07;8.27;;;6.88;;
49101;SDS011;34913;47.520;19.186;2023-09-30T11:51:21;7.55;;;6.40;;
49101;SDS011;34913;47.520;19.186;2023-09-30T11:53:49;7.47;;;6.35;;
49101;SDS011;34913;47.520;19.186;2023-09-30T11:56:25;8.43;;;6.78;;
49101;SDS011;34913;47.520;19.186;2023-09-30T11:58:54;10.02;;;6.05;;
49101;SDS011;34913;47.520;19.186;2023-09-30T12:01:21;9.68;;;6.65;;
49101;SDS011;34913;47.520;19.186;2023-09-30T12:03:47;9.77;;;6.45;;
49101;SDS011;34913;47.520;19.186;2023-09-30T12:06:13;10.32;;;6.78;;
49101;SDS011;34913;47.520;19.186;2023-09-30T12:08:41;10.48;;;6.97;;
49101;SDS011;34913;47.520;19.186;2023-09-30T12:11:07;12.05;;;6.60;;
49101;SDS011;34913;47.520;19.186;2023-09-30T12:13:32;12.07;;;6.93;;
49101;SDS011;34913;47.520;19.186;2023-09-30T12:15:58;8.02;;;6.43;;
49101;SDS011;34913;47.520;19.186;2023-09-30T12:18:23;8.90;;;6.78;;
49101;SDS011;34913;47.520;19.186;2023-09-30T12:20:49;9.35;;;7.28;;
49101;SDS011;34913;47.520;19.186;2023-09-30T12:23:17;9.63;;;6.90;;
49101;SDS011;34913;47.520;19.186;2023-09-30T12:25:46;10.20;;;6.72;;
49101;SDS011;34913;47.520;19.186;2023-09-30T12:28:12;11.02;;;7.50;;
49101;SDS011;34913;47.520;19.186;2023-09-30T12:30:40;9.15;;;7.13;;
49101;SDS011;34913;47.520;19.186;2023-09-30T12:33:06;9.32;;;6.97;;
49101;SDS011;34913;47.520;19.186;2023-09-30T12:35:32;11.20;;;7.40;;
49101;SDS011;34913;47.520;19.186;2023-09-30T12:37:58;9.95;;;6.80;;
49101;SDS011;34913;47.520;19.186;2023-09-30T12:40:23;9.90;;;6.93;;
49101;SDS011;34913;47.520;19.186;2023-09-30T12:42:49;11.70;;;7.25;;
49101;SDS011;34913;47.520;19.186;2023-09-30T12:45:14;10.27;;;7.32;;
49101;SDS011;34913;47.520;19.186;2023-09-30T12:47:41;8.98;;;7.10;;
49101;SDS011;34913;47.520;19.186;2023-09-30T12:50:07;10.30;;;6.70;;
49101;SDS011;34913;47.520;19.186;2023-09-30T12:52:36;9.65;;;6.63;;
49101;SDS011;34913;47.520;19.186;2023-09-30T12:55:03;8.75;;;6.90;;
49101;SDS011;34913;47.520;19.186;2023-09-30T12:57:30;9.15;;;6.78;;
49101;SDS011;34913;47.520;19.186;2023-09-30T12:59:55;8.10;;;6.78;;
49101;SDS011;34913;47.520;19.186;2023-09-30T13:02:21;8.60;;;6.70;;
49101;SDS011;34913;47.520;19.186;2023-09-30T13:04:47;8.77;;;6.85;;
49101;SDS011;34913;47.520;19.186;2023-09-30T13:07:13;9.38;;;7.28;;
49101;SDS011;34913;47.520;19.186;2023-09-30T13:09:39;11.10;;;7.53;;
49101;SDS011;34913;47.520;19.186;2023-09-30T13:12:05;8.52;;;6.88;;
49101;SDS011;34913;47.520;19.186;2023-09-30T13:14:31;9.65;;;7.35;;
49101;SDS011;34913;47.520;19.186;2023-09-30T13:16:57;8.60;;;6.90;;
49101;SDS011;34913;47.520;19.186;2023-09-30T13:19:22;9.93;;;7.45;;
49101;SDS011;34913;47.520;19.186;2023-09-30T13:21:51;9.65;;;6.80;;
49101;SDS011;34913;47.520;19.186;2023-09-30T13:24:21;13.35;;;7.30;;
49101;SDS011;34913;47.520;19.186;2023-09-30T13:26:47;8.13;;;6.43;;
49101;SDS011;34913;47.520;19.186;2023-09-30T13:29:13;10.82;;;7.18;;
49101;SDS011;34913;47.520;19.186;2023-09-30T13:31:41;10.18;;;6.50;;
49101;SDS011;34913;47.520;19.186;2023-09-30T13:34:07;7.93;;;6.78;;
49101;SDS011;34913;47.520;19.186;2023-09-30T13:36:33;9.90;;;6.68;;
49101;SDS011;34913;47.520;19.186;2023-09-30T13:38:59;12.52;;;6.85;;
49101;SDS011;34913;47.520;19.186;2023-09-30T13:41:24;9.07;;;6.50;;
49101;SDS011;34913;47.520;19.186;2023-09-30T13:43:49;9.93;;;6.68;;
49101;SDS011;34913;47.520;19.186;2023-09-30T13:46:15;9.43;;;6.60;;
49101;SDS011;34913;47.520;19.186;2023-09-30T13:48:41;7.03;;;6.15;;
49101;SDS011;34913;47.520;19.186;2023-09-30T13:51:07;8.88;;;6.90;;
49101;SDS011;34913;47.520;19.186;2023-09-30T13:53:34;10.90;;;6.68;;
49101;SDS011;34913;47.520;19.186;2023-09-30T13:56:00;8.00;;;6.40;;
49101;SDS011;34913;47.520;19.186;2023-09-30T13:58:26;11.55;;;6.80;;
49101;SDS011;34913;47.520;19.186;2023-09-30T14:00:52;8.20;;;6.57;;
49101;SDS011;34913;47.520;19.186;2023-09-30T14:03:18;8.80;;;6.53;;
49101;SDS011;34913;47.520;19.186;2023-09-30T14:05:44;9.50;;;6.80;;
49101;SDS011;34913;47.520;19.186;2023-09-30T14:08:11;8.65;;;5.95;;
49101;SDS011;34913;47.520;19.186;2023-09-30T14:10:37;7.90;;;6.22;;
49101;SDS011;34913;47.520;19.186;2023-09-30T14:13:03;12.35;;;6.97;;
49101;SDS011;34913;47.520;19.186;2023-09-30T14:15:29;8.35;;;6.65;;
49101;SDS011;34913;47.520;19.186;2023-09-30T14:17:56;9.50;;;6.57;;
49101;SDS011;34913;47.520;19.186;2023-09-30T14:20:23;10.85;;;6.88;;
49101;SDS011;34913;47.520;19.186;2023-09-30T14:22:49;9.52;;;7.10;;
49101;SDS011;34913;47.520;19.186;2023-09-30T14:25:16;8.73;;;6.40;;
49101;SDS011;34913;47.520;19.186;2023-09-30T14:27:42;9.65;;;6.57;;
49101;SDS011;34913;47.520;19.186;2023-09-30T14:30:07;10.30;;;6.07;;
49101;SDS011;34913;47.520;19.186;2023-09-30T14:32:33;8.65;;;6.13;;
49101;SDS011;34913;47.520;19.186;2023-09-30T14:34:59;12.25;;;6.47;;
49101;SDS011;34913;47.520;19.186;2023-09-30T14:37:24;10.85;;;6.70;;
49101;SDS011;34913;47.520;19.186;2023-09-30T14:39:50;10.73;;;6.47;;
49101;SDS011;34913;47.520;19.186;2023-09-30T14:42:15;9.20;;;6.60;;
49101;SDS011;34913;47.520;19.186;2023-09-30T14:44:41;9.32;;;6.80;;
49101;SDS011;34913;47.520;19.186;2023-09-30T14:47:07;10.43;;;6.55;;